Hicks Airfield Weather

No METAR data is available for Hicks Airfield, and nearby Alliance Airport's METAR data is commonly used by area pilots. Weather infomation is also available on 126.925 mhz.

  • Current KAFW METAR
    (5.8nm NE) LIFR
    Raw Text: KAFW 231353Z 08003KT 3SM BR OVC004 17/16 A3011 RMK AO2 SFC VIS 6 SLP191 T01670156
    Wind: 80° @ 3kts
    Visibility: 3.0sm BR
    Clouds (AGL): OVC at 400ft
    Temperature: 16.7°C
    Dew Point: 15.6°C
    Altimeter: 30.11 inHg
  • Current KAFW TAF
    (5.8nm NE)
    Raw Text: KAFW 231120Z 2312/2412 05007KT 6SM BR OVC007 TEMPO 2312/2315 00000KT 3SM -DZ BR BKN004 FM231500 09007KT P6SM OVC008 FM231800 12011KT P6SM BKN015 FM232200 11012KT P6SM VCSH BKN050 FM240500 13012KT P6SM VCTS BKN025CB FM240900 15013KT P6SM TSRA OVC009CB